createdAt,value
2023-04-12T05:03:19.188Z,1109.00
2023-04-12T05:04:20.131Z,1110.00
2023-04-12T05:05:20.133Z,1111.00
2023-04-12T05:06:19.186Z,1111.00
2023-04-12T05:07:20.177Z,1109.00
2023-04-12T05:08:20.233Z,1107.00
2023-04-12T05:09:20.264Z,1105.00
2023-04-12T05:10:20.305Z,1104.00
2023-04-12T05:11:20.338Z,1102.00
2023-04-12T05:12:19.334Z,1103.00
2023-04-12T05:13:20.344Z,1100.00
2023-04-12T05:14:20.463Z,1100.00
2023-04-12T05:15:19.332Z,1099.00
2023-04-12T05:16:20.369Z,1099.00
2023-04-12T05:17:19.343Z,963.00
2023-04-12T05:18:20.390Z,820.00
2023-04-12T05:19:20.438Z,802.00
2023-04-12T05:20:20.450Z,792.00
2023-04-12T05:21:21.040Z,776.00
2023-04-12T05:22:19.674Z,734.00
2023-04-12T05:23:20.719Z,725.00
2023-04-12T05:24:19.741Z,716.00
2023-04-12T05:25:20.761Z,710.00
2023-04-12T05:26:19.785Z,725.00
2023-04-12T05:27:19.831Z,786.00
2023-04-12T05:28:20.858Z,776.00
2023-04-12T05:29:19.852Z,775.00
2023-04-12T05:30:19.876Z,783.00
2023-04-12T05:31:19.954Z,783.00
2023-04-12T05:32:20.997Z,785.00
2023-04-12T05:33:20.012Z,787.00
2023-04-12T05:34:21.021Z,790.00
2023-04-12T05:35:21.080Z,793.00
2023-04-12T05:36:20.060Z,799.00
2023-04-12T05:37:20.079Z,804.00
2023-04-12T05:38:20.045Z,810.00
2023-04-12T05:39:21.045Z,812.00
2023-04-12T05:40:21.040Z,814.00
2023-04-12T05:41:21.071Z,832.00
2023-04-12T05:42:21.098Z,875.00
2023-04-12T05:43:21.761Z,877.00
2023-04-12T05:44:21.243Z,892.00
2023-04-12T05:45:20.273Z,906.00
2023-04-12T05:46:21.397Z,941.00
2023-04-12T05:47:21.398Z,946.00
2023-04-12T05:48:20.443Z,953.00
2023-04-12T05:49:21.618Z,973.00
2023-04-12T05:50:20.533Z,1012.00
2023-04-12T05:51:30.699Z,1022.00
2023-04-12T05:52:21.776Z,1038.00
2023-04-12T05:53:21.630Z,1053.00
2023-04-12T05:54:20.557Z,1066.00
2023-04-12T05:55:21.556Z,1084.00
2023-04-12T05:56:21.567Z,1165.00
2023-04-12T05:57:21.546Z,1187.00
2023-04-12T05:58:21.536Z,1198.00
2023-04-12T05:59:20.575Z,1216.00
2023-04-12T06:00:20.525Z,1232.00
2023-04-12T06:01:20.509Z,1250.00
2023-04-12T06:02:20.848Z,1292.00
2023-04-12T06:03:20.681Z,1313.00
2023-04-12T06:04:21.679Z,1327.00
2023-04-12T06:05:21.481Z,1345.00
2023-04-12T06:06:21.458Z,1370.00
2023-04-12T06:07:21.505Z,1383.00
2023-04-12T06:08:21.466Z,1402.00
2023-04-12T06:09:21.452Z,1464.00
2023-04-12T06:10:21.448Z,1452.00
2023-04-12T06:11:21.453Z,1467.00
2023-04-12T06:12:20.419Z,1480.00
2023-04-12T06:13:21.415Z,1502.00
2023-04-12T06:14:21.415Z,1530.00
2023-04-12T06:15:20.448Z,1544.00
2023-04-12T06:16:20.513Z,1551.00
2023-04-12T06:17:21.420Z,1562.00
2023-04-12T06:18:21.390Z,1576.00
2023-04-12T06:19:21.377Z,1591.00
2023-04-12T06:20:21.368Z,1598.00
2023-04-12T06:21:21.348Z,1610.00
2023-04-12T06:22:21.362Z,1633.00
2023-04-12T06:23:21.369Z,1645.00
2023-04-12T06:24:20.341Z,1677.00
2023-04-12T06:25:20.329Z,1687.00
2023-04-12T06:26:21.329Z,1701.00
2023-04-12T06:27:21.325Z,1713.00
2023-04-12T06:28:21.314Z,1741.00
2023-04-12T06:29:21.360Z,1775.00
2023-04-12T06:30:21.385Z,1797.00
2023-04-12T06:31:20.475Z,1808.00
2023-04-12T06:32:21.494Z,1816.00
2023-04-12T06:33:21.705Z,1830.00
2023-04-12T06:34:21.578Z,1839.00
2023-04-12T06:35:21.606Z,1892.00
2023-04-12T06:36:21.591Z,1903.00
2023-04-12T06:37:20.622Z,1912.00
2023-04-12T06:38:20.697Z,1928.00
2023-04-12T06:39:20.737Z,1938.00
2023-04-12T06:40:21.772Z,1954.00
2023-04-12T06:41:21.834Z,2014.00
2023-04-12T06:42:21.905Z,2026.00
2023-04-12T06:43:20.958Z,2029.00
2023-04-12T06:44:22.026Z,2041.00
2023-04-12T06:45:22.183Z,2051.00
2023-04-12T06:46:22.176Z,2073.00
2023-04-12T06:47:22.361Z,2087.00
2023-04-12T06:48:22.261Z,2102.00
2023-04-12T06:49:22.608Z,2118.00
2023-04-12T06:50:21.381Z,2131.00
2023-04-12T06:51:21.424Z,2147.00
2023-04-12T06:52:21.783Z,2166.00
2023-04-12T06:53:22.539Z,2208.00
2023-04-12T06:54:22.602Z,2231.00
2023-04-12T06:55:22.696Z,2257.00
2023-04-12T06:56:22.706Z,2258.00
2023-04-12T06:57:22.798Z,2260.00
2023-04-12T06:58:22.833Z,2261.00
2023-04-12T06:59:22.895Z,2258.00
2023-04-12T07:00:21.954Z,2252.00
2023-04-12T07:01:23.061Z,2248.00
2023-04-12T07:02:23.100Z,2248.00
2023-04-12T07:03:23.089Z,2247.00
2023-04-12T07:04:23.113Z,2246.00
2023-04-12T07:05:22.014Z,2245.00
2023-04-12T07:06:25.660Z,2240.00
2023-04-12T07:07:23.027Z,2237.00
2023-04-12T07:08:21.992Z,2237.00
2023-04-12T07:09:22.991Z,2233.00
2023-04-12T07:10:22.975Z,2232.00
2023-04-12T07:11:23.472Z,2225.00
2023-04-12T07:12:22.999Z,2225.00
2023-04-12T07:13:22.942Z,2224.00
2023-04-12T07:14:21.960Z,2222.00
2023-04-12T07:15:22.945Z,2220.00
2023-04-12T07:16:22.934Z,2217.00
2023-04-12T07:17:22.111Z,2217.00
2023-04-12T07:18:22.911Z,2215.00
2023-04-12T07:19:22.913Z,2215.00
2023-04-12T07:20:22.899Z,2211.00
2023-04-12T07:21:22.041Z,2215.00
2023-04-12T07:22:22.911Z,2215.00
2023-04-12T07:23:21.884Z,2215.00
2023-04-12T07:24:21.880Z,2210.00
2023-04-12T07:25:22.907Z,2208.00
2023-04-12T07:26:22.871Z,2210.00
2023-04-12T07:27:22.877Z,2209.00
2023-04-12T07:28:22.828Z,2207.00
2023-04-12T07:29:21.843Z,2202.00
2023-04-12T07:30:22.823Z,2196.00
2023-04-12T07:31:22.817Z,2189.00
2023-04-12T07:32:23.012Z,2186.00
2023-04-12T07:33:22.989Z,2178.00
2023-04-12T07:34:23.069Z,2177.00
2023-04-12T07:35:22.786Z,2176.00
2023-04-12T07:36:21.826Z,2176.00
2023-04-12T07:37:22.773Z,2177.00
2023-04-12T07:38:22.792Z,2174.00
2023-04-12T07:39:22.814Z,2171.00
2023-04-12T07:40:22.767Z,2170.00
2023-04-12T07:41:22.747Z,2169.00
2023-04-12T07:42:22.763Z,2168.00
2023-04-12T07:43:22.810Z,2167.00
2023-04-12T07:44:22.774Z,2167.00
2023-04-12T07:45:22.781Z,2171.00
2023-04-12T07:46:22.874Z,2168.00
2023-04-12T07:47:22.867Z,2170.00
2023-04-12T07:48:21.698Z,2171.00
2023-04-12T07:49:22.695Z,2165.00
2023-04-12T07:50:22.678Z,1800.00
2023-04-12T07:51:22.677Z,2052.00
2023-04-12T07:52:22.858Z,2059.00
2023-04-12T07:53:22.656Z,2066.00
2023-04-12T07:54:23.550Z,2081.00
2023-04-12T07:55:21.638Z,2101.00
2023-04-12T07:56:21.638Z,2116.00
2023-04-12T07:57:22.630Z,2202.00
2023-04-12T07:58:22.626Z,2217.00
2023-04-12T07:59:22.634Z,2226.00
2023-04-12T08:00:21.602Z,2242.00
2023-04-12T08:01:22.623Z,2270.00
2023-04-12T08:02:21.780Z,2286.00
2023-04-12T08:03:23.774Z,2307.00
2023-04-12T08:04:22.983Z,2324.00
2023-04-12T08:05:22.911Z,2340.00
2023-04-12T08:06:21.886Z,2349.00
2023-04-12T08:07:23.014Z,2354.00
2023-04-12T08:08:23.172Z,2362.00
2023-04-12T08:09:23.067Z,2381.00
2023-04-12T08:10:23.138Z,2396.00
2023-04-12T08:11:23.186Z,2407.00
2023-04-12T08:12:23.306Z,2421.00
2023-04-12T08:13:22.295Z,2443.00
2023-04-12T08:14:22.345Z,2465.00
2023-04-12T08:15:22.520Z,2487.00
2023-04-12T08:16:23.507Z,2503.00
2023-04-12T08:17:22.501Z,2519.00
2023-04-12T08:18:23.538Z,2531.00
2023-04-12T08:19:23.563Z,2545.00
2023-04-12T08:20:23.639Z,2554.00
2023-04-12T08:21:23.653Z,2567.00
2023-04-12T08:22:22.690Z,2583.00
2023-04-12T08:23:23.714Z,2599.00
2023-04-12T08:24:23.745Z,2616.00
2023-04-12T08:25:23.810Z,2636.00
2023-04-12T08:26:22.814Z,2654.00
2023-04-12T08:27:23.848Z,2672.00
2023-04-12T08:28:23.899Z,2689.00
2023-04-12T08:29:23.932Z,2701.00
2023-04-12T08:30:23.956Z,2720.00
2023-04-12T08:31:23.371Z,2731.00
2023-04-12T08:32:23.096Z,2745.00
2023-04-12T08:33:23.048Z,2772.00
2023-04-12T08:34:24.068Z,2799.00
2023-04-12T08:35:23.158Z,2811.00
2023-04-12T08:36:23.135Z,2829.00
2023-04-12T08:37:24.172Z,2853.00
2023-04-12T08:38:37.214Z,2878.00
2023-04-12T08:39:24.197Z,2903.00
2023-04-12T08:40:24.192Z,2919.00
2023-04-12T08:41:23.185Z,2936.00
2023-04-12T08:42:24.319Z,2952.00
2023-04-12T08:43:24.150Z,2960.00
2023-04-12T08:44:24.152Z,2971.00
2023-04-12T08:45:23.139Z,2484.00
2023-04-12T08:46:24.158Z,1861.00
2023-04-12T08:47:23.596Z,1741.00
2023-04-12T08:48:24.130Z,1746.00
2023-04-12T08:49:24.137Z,1948.00
2023-04-12T08:50:24.102Z,1951.00
2023-04-12T08:51:24.127Z,1506.00
2023-04-12T08:52:24.101Z,1213.00
2023-04-12T08:53:23.091Z,1127.00
2023-04-12T08:54:24.084Z,983.00
2023-04-12T08:55:24.114Z,958.00
2023-04-12T08:56:24.057Z,855.00
2023-04-12T08:57:24.328Z,863.00
2023-04-12T08:58:24.061Z,850.00
2023-04-12T08:59:24.061Z,834.00
2023-04-12T09:00:23.042Z,1131.00
2023-04-12T09:01:23.048Z,968.00
2023-04-12T09:02:24.311Z,953.00
2023-04-12T09:03:23.326Z,872.00
2023-04-12T09:04:23.150Z,800.00
2023-04-12T09:05:24.098Z,693.00
2023-04-12T09:06:24.033Z,587.00
2023-04-12T09:07:22.973Z,581.00
2023-04-12T09:08:23.987Z,530.00
2023-04-12T09:09:22.966Z,527.00
2023-04-12T09:10:23.996Z,526.00
2023-04-12T09:11:23.952Z,521.00
2023-04-12T09:12:23.948Z,507.00
2023-04-12T09:13:23.951Z,497.00
2023-04-12T09:14:23.926Z,490.00
2023-04-12T09:15:23.926Z,496.00
2023-04-12T09:16:23.936Z,496.00
2023-04-12T09:17:23.957Z,647.00
2023-04-12T09:18:23.917Z,675.00
2023-04-12T09:19:23.918Z,698.00
2023-04-12T09:20:22.992Z,708.00
2023-04-12T09:21:23.969Z,700.00
2023-04-12T09:22:22.953Z,704.00
2023-04-12T09:23:24.021Z,712.00
2023-04-12T09:24:23.994Z,730.00
2023-04-12T09:25:23.974Z,741.00
2023-04-12T09:26:23.988Z,752.00
2023-04-12T09:27:23.032Z,759.00
2023-04-12T09:28:23.177Z,763.00
2023-04-12T09:29:24.236Z,636.00
2023-04-12T09:30:24.146Z,634.00
2023-04-12T09:31:24.196Z,579.00
2023-04-12T09:32:24.267Z,576.00
2023-04-12T09:33:23.190Z,535.00
2023-04-12T09:34:26.513Z,521.00
2023-04-12T09:35:24.273Z,500.00
2023-04-12T09:36:23.213Z,483.00
2023-04-12T09:37:24.177Z,470.00
2023-04-12T09:38:24.168Z,460.00
2023-04-12T09:39:24.167Z,459.00
2023-04-12T09:40:24.135Z,453.00
2023-04-12T09:41:26.717Z,436.00
2023-04-12T09:42:33.279Z,432.00
2023-04-12T09:43:24.140Z,426.00
2023-04-12T09:44:24.115Z,422.00
2023-04-12T09:45:24.232Z,426.00
2023-04-12T09:46:24.242Z,470.00
2023-04-12T09:47:23.151Z,547.00
2023-04-12T09:48:24.365Z,536.00
2023-04-12T09:49:24.080Z,537.00
2023-04-12T09:50:24.067Z,651.00
2023-04-12T09:51:24.104Z,644.00
2023-04-12T09:52:23.058Z,632.00
2023-04-12T09:53:24.358Z,745.00
2023-04-12T09:54:23.030Z,763.00
2023-04-12T09:55:23.070Z,750.00
2023-04-12T09:56:23.057Z,821.00
2023-04-12T09:57:24.043Z,802.00
2023-04-12T09:58:24.101Z,766.00
2023-04-12T09:59:24.080Z,761.00
2023-04-12T10:00:23.001Z,737.00
2023-04-12T10:01:24.133Z,983.00
2023-04-12T10:02:24.134Z,1081.00
2023-04-12T10:03:24.228Z,1081.00
2023-04-12T10:04:23.126Z,1073.00
2023-04-12T10:05:24.220Z,1074.00
2023-04-12T10:06:23.965Z,1082.00
2023-04-12T10:07:23.957Z,1093.00
2023-04-12T10:08:23.976Z,1166.00
2023-04-12T10:09:23.906Z,1177.00
2023-04-12T10:10:23.900Z,1194.00
2023-04-12T10:11:22.905Z,1219.00
2023-04-12T10:12:24.107Z,1238.00
2023-04-12T10:13:22.937Z,1275.00
2023-04-12T10:14:22.937Z,1304.00
2023-04-12T10:15:23.879Z,1318.00
2023-04-12T10:16:23.919Z,1347.00
2023-04-12T10:17:23.892Z,1369.00
2023-04-12T10:18:22.872Z,1393.00
2023-04-12T10:19:23.915Z,1437.00
2023-04-12T10:20:27.101Z,1462.00
2023-04-12T10:21:23.900Z,1487.00
2023-04-12T10:22:22.923Z,1519.00
2023-04-12T10:23:23.946Z,1556.00
2023-04-12T10:24:23.900Z,1590.00
2023-04-12T10:25:22.906Z,1612.00
2023-04-12T10:26:23.898Z,1640.00
2023-04-12T10:27:22.895Z,1666.00
2023-04-12T10:28:23.883Z,1691.00
2023-04-12T10:29:22.871Z,1729.00
2023-04-12T10:30:23.850Z,1750.00
2023-04-12T10:31:23.987Z,1778.00
2023-04-12T10:32:23.921Z,1812.00
2023-04-12T10:33:22.917Z,1856.00
2023-04-12T10:34:23.823Z,1886.00
2023-04-12T10:35:23.793Z,1904.00
2023-04-12T10:36:23.874Z,1945.00
2023-04-12T10:37:23.797Z,1954.00
2023-04-12T10:38:23.815Z,1979.00
2023-04-12T10:39:23.810Z,2013.00
2023-04-12T10:40:23.799Z,2049.00
2023-04-12T10:41:22.819Z,2068.00
2023-04-12T10:42:23.807Z,2087.00
2023-04-12T10:43:23.854Z,2107.00
2023-04-12T10:44:22.740Z,2141.00
2023-04-12T10:45:22.777Z,2207.00
2023-04-12T10:46:22.775Z,2379.00
2023-04-12T10:47:23.817Z,2304.00
2023-04-12T10:48:23.933Z,2304.00
2023-04-12T10:49:22.737Z,2332.00
2023-04-12T10:50:23.772Z,2349.00
2023-04-12T10:51:23.754Z,2372.00
2023-04-12T10:52:22.745Z,2392.00
2023-04-12T10:53:22.802Z,2407.00
2023-04-12T10:54:23.791Z,2411.00
2023-04-12T10:55:23.860Z,2415.00
2023-04-12T10:56:22.816Z,2422.00
2023-04-12T10:57:22.821Z,2425.00
2023-04-12T10:58:23.932Z,2430.00
2023-04-12T10:59:27.083Z,2420.00
2023-04-12T11:00:23.823Z,2411.00
2023-04-12T11:01:23.946Z,2410.00
2023-04-12T11:02:23.977Z,2408.00
2023-04-12T11:03:23.901Z,2411.00
2023-04-12T11:04:24.018Z,2406.00
2023-04-12T11:05:22.871Z,2409.00
2023-04-12T11:06:27.435Z,2415.00
2023-04-12T11:07:23.735Z,2411.00
2023-04-12T11:08:23.758Z,2404.00
2023-04-12T11:09:23.730Z,2394.00
2023-04-12T11:10:23.745Z,2384.00
2023-04-12T11:11:23.884Z,2379.00
2023-04-12T11:12:23.809Z,2379.00
2023-04-12T11:13:23.877Z,2376.00
2023-04-12T11:14:23.918Z,2368.00
2023-04-12T11:15:23.995Z,2364.00
2023-04-12T11:16:24.081Z,2358.00
2023-04-12T11:17:23.977Z,2359.00
2023-04-12T11:18:24.175Z,2358.00
2023-04-12T11:19:24.208Z,2355.00
2023-04-12T11:20:24.289Z,2354.00
2023-04-12T11:21:24.343Z,2350.00
2023-04-12T11:22:24.414Z,2349.00
2023-04-12T11:23:23.448Z,2348.00
2023-04-12T11:24:24.497Z,2344.00
2023-04-12T11:25:24.572Z,2347.00
2023-04-12T11:26:24.613Z,2345.00
2023-04-12T11:27:24.772Z,2344.00
2023-04-12T11:28:29.720Z,2334.00
2023-04-12T11:29:24.824Z,2326.00
2023-04-12T11:30:23.826Z,2322.00
2023-04-12T11:31:23.733Z,2312.00
2023-04-12T11:32:23.859Z,2306.00
2023-04-12T11:33:24.694Z,2292.00
2023-04-12T11:34:24.705Z,2285.00
2023-04-12T11:35:24.672Z,2275.00
2023-04-12T11:36:24.660Z,2263.00
2023-04-12T11:37:23.686Z,2261.00
2023-04-12T11:38:23.664Z,2254.00
2023-04-12T11:39:23.636Z,2163.00
2023-04-12T11:40:24.654Z,2151.00
2023-04-12T11:41:24.633Z,2145.00
2023-04-12T11:42:24.617Z,2142.00
2023-04-12T11:43:23.633Z,2141.00
2023-04-12T11:44:24.615Z,2139.00
2023-04-12T11:45:24.595Z,2141.00
2023-04-12T11:46:24.646Z,2140.00
2023-04-12T11:47:24.635Z,2133.00
2023-04-12T11:48:23.596Z,2132.00
2023-04-12T11:49:24.561Z,2131.00
2023-04-12T11:50:23.562Z,2130.00
2023-04-12T11:51:23.546Z,2130.00
2023-04-12T11:52:24.573Z,2134.00
2023-04-12T11:53:24.607Z,2132.00
2023-04-12T11:54:24.623Z,2127.00
2023-04-12T11:55:24.656Z,2124.00
2023-04-12T11:56:23.668Z,2121.00
2023-04-12T11:57:23.656Z,2116.00
2023-04-12T11:58:23.700Z,2114.00
2023-04-12T11:59:24.697Z,2114.00
2023-04-12T12:00:23.696Z,2115.00
2023-04-12T12:01:25.406Z,2113.00
2023-04-12T12:02:25.839Z,2109.00
2023-04-12T12:03:23.851Z,2107.00
2023-04-12T12:04:24.878Z,2108.00
2023-04-12T12:05:24.940Z,2112.00
2023-04-12T12:06:23.959Z,2114.00
2023-04-12T12:07:25.086Z,2114.00
2023-04-12T12:08:23.925Z,2111.00
2023-04-12T12:09:24.878Z,2110.00
2023-04-12T12:10:40.023Z,2106.00
2023-04-12T12:11:24.888Z,2103.00
2023-04-12T12:12:24.858Z,2103.00
2023-04-12T12:13:23.899Z,2101.00
2023-04-12T12:14:24.858Z,2098.00
2023-04-12T12:15:24.983Z,2101.00
2023-04-12T12:16:25.050Z,2100.00
2023-04-12T12:17:24.871Z,2104.00
2023-04-12T12:18:23.851Z,2101.00
2023-04-12T12:19:24.822Z,2103.00
2023-04-12T12:20:23.861Z,2098.00
2023-04-12T12:21:24.830Z,2097.00
2023-04-12T12:22:24.824Z,2094.00
2023-04-12T12:23:24.801Z,2089.00
2023-04-12T12:24:24.786Z,2089.00
2023-04-12T12:25:24.757Z,2086.00
2023-04-12T12:26:24.780Z,2085.00
2023-04-12T12:27:23.786Z,2086.00
2023-04-12T12:28:23.772Z,2089.00
2023-04-12T12:29:24.735Z,2087.00
2023-04-12T12:30:24.731Z,2083.00
2023-04-12T12:31:24.790Z,2085.00
2023-04-12T12:32:23.859Z,2085.00
2023-04-12T12:33:35.075Z,2086.00
2023-04-12T12:34:24.737Z,2085.00
2023-04-12T12:35:24.699Z,2084.00
2023-04-12T12:36:23.685Z,2082.00
2023-04-12T12:37:23.672Z,2080.00
2023-04-12T12:38:31.421Z,2075.00
2023-04-12T12:39:24.683Z,2078.00
2023-04-12T12:40:23.667Z,2074.00
2023-04-12T12:41:24.656Z,2068.00
2023-04-12T12:42:23.651Z,2068.00
2023-04-12T12:43:24.627Z,2066.00
2023-04-12T12:44:23.631Z,2062.00
2023-04-12T12:45:24.647Z,2064.00
2023-04-12T12:46:23.653Z,2064.00
2023-04-12T12:47:24.661Z,2065.00
2023-04-12T12:48:23.634Z,2064.00
2023-04-12T12:49:23.615Z,2066.00
2023-04-12T12:50:24.897Z,2066.00
2023-04-12T12:51:24.574Z,2067.00
2023-04-12T12:52:23.572Z,2066.00
2023-04-12T12:53:24.766Z,2065.00
2023-04-12T12:54:39.413Z,2066.00
2023-04-12T12:55:24.563Z,2065.00
2023-04-12T12:56:24.552Z,2064.00
2023-04-12T12:57:24.537Z,2063.00
2023-04-12T12:58:24.540Z,2060.00
2023-04-12T12:59:25.976Z,2055.00
2023-04-12T13:00:24.666Z,2052.00
2023-04-12T13:01:24.694Z,2054.00
2023-04-12T13:02:23.759Z,2051.00
2023-04-12T13:03:24.846Z,2047.00
2023-04-12T13:04:23.773Z,2044.00
2023-04-12T13:05:23.791Z,2045.00
2023-04-12T13:06:23.680Z,2047.00
2023-04-12T13:07:24.702Z,2048.00
2023-04-12T13:08:23.700Z,2045.00
2023-04-12T13:09:24.735Z,2046.00
2023-04-12T13:10:23.756Z,2042.00
2023-04-12T13:11:23.701Z,2041.00
2023-04-12T13:12:23.704Z,2042.00
2023-04-12T13:13:24.713Z,2040.00
2023-04-12T13:14:24.703Z,2041.00
2023-04-12T13:15:24.790Z,2037.00
2023-04-12T13:16:26.264Z,2033.00
2023-04-12T13:17:24.693Z,2030.00
2023-04-12T13:18:24.676Z,2031.00
2023-04-12T13:19:24.747Z,2029.00
2023-04-12T13:20:23.663Z,2030.00
2023-04-12T13:21:24.679Z,2027.00
2023-04-12T13:22:24.651Z,2027.00
2023-04-12T13:23:24.655Z,2028.00
2023-04-12T13:24:24.655Z,2028.00
2023-04-12T13:25:24.659Z,2027.00
2023-04-12T13:26:23.639Z,2026.00
2023-04-12T13:27:24.626Z,2025.00
2023-04-12T13:28:24.635Z,2024.00
2023-04-12T13:29:23.631Z,2020.00
2023-04-12T13:30:23.593Z,2018.00
2023-04-12T13:31:24.593Z,2016.00
2023-04-12T13:32:24.606Z,2016.00
2023-04-12T13:33:24.730Z,2014.00
2023-04-12T13:34:24.576Z,2014.00
2023-04-12T13:35:24.603Z,2011.00
2023-04-12T13:36:23.575Z,2006.00
2023-04-12T13:37:24.538Z,2003.00
2023-04-12T13:38:24.542Z,2001.00
2023-04-12T13:39:24.531Z,2001.00
2023-04-12T13:40:23.524Z,1998.00
2023-04-12T13:41:23.533Z,1999.00
2023-04-12T13:42:24.506Z,1999.00
2023-04-12T13:43:23.497Z,1998.00
2023-04-12T13:44:23.503Z,1998.00
2023-04-12T13:45:24.501Z,1997.00
2023-04-12T13:46:23.545Z,1997.00
2023-04-12T13:47:24.513Z,1998.00
2023-04-12T13:48:24.527Z,1998.00
2023-04-12T13:49:23.476Z,1997.00
2023-04-12T13:50:23.448Z,1999.00
2023-04-12T13:51:24.539Z,2000.00
2023-04-12T13:52:24.448Z,2003.00
2023-04-12T13:53:24.442Z,1995.00
2023-04-12T13:54:24.438Z,1984.00
2023-04-12T13:55:24.419Z,1952.00
2023-04-12T13:56:24.430Z,1942.00
2023-04-12T13:57:24.396Z,1930.00
2023-04-12T13:58:23.406Z,1917.00
2023-04-12T13:59:24.580Z,1905.00
2023-04-12T14:00:24.376Z,1892.00
2023-04-12T14:01:23.455Z,1883.00
2023-04-12T14:02:23.421Z,1874.00
2023-04-12T14:03:24.382Z,1868.00
2023-04-12T14:04:23.452Z,1865.00
2023-04-12T14:05:24.350Z,1866.00
2023-04-12T14:06:23.348Z,1867.00
2023-04-12T14:07:24.395Z,1868.00
2023-04-12T14:08:23.331Z,1863.00
2023-04-12T14:09:24.343Z,1862.00
2023-04-12T14:10:24.319Z,1861.00
2023-04-12T14:11:24.302Z,1860.00
2023-04-12T14:12:24.355Z,1859.00
2023-04-12T14:13:23.409Z,1854.00
2023-04-12T14:14:24.508Z,1857.00
2023-04-12T14:15:24.538Z,1855.00
2023-04-12T14:16:23.592Z,1853.00
2023-04-12T14:17:23.801Z,1851.00
2023-04-12T14:18:23.816Z,1849.00
2023-04-12T14:19:23.773Z,1851.00
2023-04-12T14:20:24.838Z,1849.00
2023-04-12T14:21:24.891Z,1849.00
2023-04-12T14:22:24.959Z,1856.00
2023-04-12T14:23:25.062Z,1851.00
2023-04-12T14:24:25.086Z,1852.00
2023-04-12T14:25:25.141Z,1850.00
2023-04-12T14:26:24.179Z,1848.00
2023-04-12T14:27:25.255Z,1849.00
2023-04-12T14:28:25.305Z,1854.00
2023-04-12T14:29:25.402Z,1850.00
2023-04-12T14:30:25.427Z,1848.00
2023-04-12T14:31:25.604Z,1846.00
2023-04-12T14:32:25.629Z,1843.00
2023-04-12T14:33:24.622Z,1839.00
2023-04-12T14:34:25.767Z,1833.00
2023-04-12T14:35:25.741Z,1831.00
2023-04-12T14:36:24.806Z,1832.00
2023-04-12T14:37:24.838Z,1831.00
2023-04-12T14:38:25.994Z,1831.00
2023-04-12T14:39:24.993Z,1829.00
2023-04-12T14:40:25.041Z,1830.00
2023-04-12T14:41:26.088Z,1823.00
2023-04-12T14:42:26.174Z,1822.00
2023-04-12T14:43:26.206Z,1821.00
2023-04-12T14:44:26.582Z,1820.00
2023-04-12T14:45:25.339Z,1819.00
2023-04-12T14:46:26.445Z,1822.00
2023-04-12T14:47:25.490Z,1818.00
2023-04-12T14:48:25.523Z,1816.00
2023-04-12T14:49:25.592Z,1814.00
2023-04-12T14:50:25.642Z,1812.00
2023-04-12T14:51:25.669Z,1811.00
2023-04-12T14:52:26.718Z,1811.00
2023-04-12T14:53:26.776Z,1807.00
2023-04-12T14:54:26.811Z,1806.00
2023-04-12T14:55:26.912Z,1810.00
2023-04-12T14:56:28.001Z,1813.00
2023-04-12T14:57:26.904Z,1808.00
2023-04-12T14:58:25.912Z,1805.00
2023-04-12T14:59:26.936Z,1806.00
2023-04-12T15:00:25.887Z,1805.00
2023-04-12T15:01:26.889Z,1802.00
2023-04-12T15:02:26.054Z,1804.00
2023-04-12T15:03:26.986Z,1804.00
2023-04-12T15:04:26.006Z,1802.00
2023-04-12T15:05:26.959Z,1801.00
2023-04-12T15:06:25.858Z,1801.00
2023-04-12T15:07:25.872Z,1798.00
2023-04-12T15:08:25.836Z,1797.00
2023-04-12T15:09:26.837Z,1800.00
2023-04-12T15:10:26.817Z,1799.00
2023-04-12T15:11:27.587Z,1798.00
2023-04-12T15:12:26.803Z,1801.00
2023-04-12T15:13:32.398Z,1794.00
2023-04-12T15:14:26.814Z,1791.00
2023-04-12T15:15:25.777Z,1788.00
2023-04-12T15:16:26.789Z,1784.00
2023-04-12T15:17:26.778Z,1786.00
2023-04-12T15:18:26.750Z,1790.00
2023-04-12T15:19:25.754Z,1790.00
2023-04-12T15:20:26.766Z,1788.00
2023-04-12T15:21:25.748Z,1784.00
2023-04-12T15:22:26.729Z,1785.00
2023-04-12T15:23:26.755Z,1783.00
2023-04-12T15:24:26.706Z,1786.00
2023-04-12T15:25:25.707Z,1782.00
2023-04-12T15:26:26.696Z,1785.00
2023-04-12T15:27:26.768Z,1784.00
2023-04-12T15:28:26.701Z,1780.00
2023-04-12T15:29:25.796Z,1780.00
